Terre Hill, PA

4:10 PM EDT on July 04, 2015 (GMT -0400)
Fivepointville Rd. | | Change Station
CLOSE
Current Station
Personal Weather Station
Location: Denver, PA
Elevation: 404 ft
Nearby Weather Stations

Elev 404 ft 40.18 °N, 76.05 °W | Updated 13 minutes ago

Overcast
Overcast
72.3 °F
Feels Like 73 °F
N
0.0
Wind Variable Wind from West

Today
High -- | Low -- °F
--% Chance of Precip.
Yesterday
High -- | Low -- °F
Precip. -- in
5:40 AM 8:36 PM
Waning Gibbous, 90% visible
Pressure 29.94 in
Visibility 7.0 miles
Clouds Mostly Cloudy 2800 ft
Overcast 3600 ft
Heat Index 73 °F
Dew Point 65 °F
Humidity 79%
Rainfall 0.16 in
Snow Depth Not available.
UV 2 out of 12
Pollen .50 out of 12
Air Quality Not available.
Flu Activity Not available.
METAR KLNS 041953Z 05004KT 7SM -RA BKN028 OVC036 21/17 A2994 RMK AO2 RAB41 SLP136 P0000 T02110172

More Conditions Fewer Conditions

Pressure 29.94 in
Visibility 7.0 miles
Clouds Mostly Cloudy 2800 ft
Overcast 3600 ft
Heat Index 73 °F
Dew Point 65 °F
Humidity 79%
Rainfall 0.16 in
Snow Depth Not available.
UV 2 out of 12
Pollen .50 out of 12
Air Quality Not available.
Flu Activity Not available.
METAR KLNS 041953Z 05004KT 7SM -RA BKN028 OVC036 21/17 A2994 RMK AO2 RAB41 SLP136 P0000 T02110172

More Conditions Fewer Conditions

10-Day Weather Forecast

×

Almanac

Astronomy

Jul. 04, 2015 Rise Set
Actual Time
Civil Twilight
Nautical Twilight
Astronomical Twilight
Moon
Length of Visible Light
Length of Day
Tomorrow will be .
, % of the Moon is Illuminated

Today's Extremes

State Highs State Lows

Community

WunderPhotos

Upload Photos

1,835,085 photos uploaded!

WunderBlogs® & News

Nearby

Air Quality

  Air Quality AQ Index Pollutant
Not available.

Snow Depth

Station Depth Elevation

Earthquake Activity

City Distance Mag. Time & Date
Minimum magnitude displayed is 2.5.

Coastal Water Temperatures

Place Temperature

Stations

Nearby Weather Stations

Station Location Temp. Windchill Dew Point Humidity Wind Precip. Elev Updated Type